Miami, FL

1:59 AM EST en Marzo 04, 2015 (GMT -0500)
DV Floral Group | Change Station
CLOSE
Current Station
Estación meteorológica personal
Location: Miami, FL
Altura: 26 ft
Estaciones meteorológicas cercanas

Alt 26 ft 25.79 °N, 80.35 °W | Updated 1 minute ago

Despejado
Despejado
74.8 ° F
Sensación térmica 75 ° F
N
13.0
Viento Variable Viento desde Este
Gusts 15.0 mph

Hoy
Alta -- | Baja -- ° F
--% Posibilidad de precipitaciones
Ayer
Alta -- | Baja -- ° F
Precip. -- pul
6:41 AM 6:24 PM
Gibosa creciente, 98% visible
Presión 30.11 pul
Visibilidad 10.0 Millas
Nubes Nubes dispersas 2200 ft
Índice de calor 75 ° F
Punto de rocío 69 ° F
Humedad 83%
Precipitaciones 0.00 pul
Espesor de la nieve No disponible.
UV 0 de una escala de 12
Polen 10.20 de una escala de 12
Calidad del aire No disponible.
Flu Activity No disponible.
METAR KMIA 040653Z 12007KT 10SM SCT022 23/19 A3011 RMK AO2 SLP196 T02280194

More Conditions Fewer Conditions

Presión 30.11 pul
Visibilidad 10.0 Millas
Nubes Nubes dispersas 2200 ft
Índice de calor 75 ° F
Punto de rocío 69 ° F
Humedad 83%
Precipitaciones 0.00 pul
Espesor de la nieve No disponible.
UV 0 de una escala de 12
Polen 10.20 de una escala de 12
Calidad del aire No disponible.
Flu Activity No disponible.
METAR KMIA 040653Z 12007KT 10SM SCT022 23/19 A3011 RMK AO2 SLP196 T02280194

More Conditions Fewer Conditions

10-Day Weather Forecast

Almanac

Astronomía

Mar. 04, 2015 Salida Puesta
Hora real
Crepúsculo civil
Crepúsculo náutico
Crepúsculo astronómico
Luna
Horas de luz
Horas de luz
Tomorrow will be .
, % of the Moon is Illuminated

Extremos de hoy

Máximos del estado Bajos del estado

Community

WunderPhotos

Upload Photos

1,802,402 ¡fotos cargadas!

WunderBlogs® & News

Nearby

Calidad del aire

  Calidad del aire Índice AQ Contaminante
Not available.

Grosos de nieve

Estación Profundido Altura

Actividad de terremotos

Ciudad Distance Mag. Tiempo y dato
Magnitud mínima muestra es 2,5.

Temperaturas de aguas costeras

Lugar Temperatura

Estaciones meteorológicas cercanas